Time;durP1;ratioP1;P1;durP2;ratioP2;P2;SDS_P1;SDS_P2;PMS_P1;PMS_P2;Temp;Humidity;BMP_temperature;BMP_pressure;BME280_temperature;BME280_humidity;BME280_pressure;Samples;Min_cycle;Max_cycle;Signal;HPM_P1;HPM_P2
2022/03/20 00:00:26;;;;;;;23.40;15.07;;;;;;;3.14;65.58;103004.84;5050894;28;20209;-79
2022/03/20 00:02:57;;;;;;;20.93;14.90;;;;;;;3.08;65.77;103000.41;5053813;28;20202;-81
2022/03/20 00:05:25;;;;;;;23.17;14.93;;;;;;;3.06;66.13;102994.25;5045686;28;20226;-80
2022/03/20 00:07:52;;;;;;;21.87;15.17;;;;;;;3.02;65.68;102994.25;5048735;28;20201;-80
2022/03/20 00:10:18;;;;;;;22.23;14.90;;;;;;;3.00;66.05;102990.75;5051665;28;20213;-80
2022/03/20 00:12:45;;;;;;;24.27;15.30;;;;;;;2.96;67.01;102988.97;5049654;28;20680;-81
2022/03/20 00:15:12;;;;;;;23.03;15.57;;;;;;;2.95;66.05;102985.44;5050256;28;20690;-80
2022/03/20 00:17:38;;;;;;;21.03;15.63;;;;;;;2.92;66.92;102988.06;5052381;28;20289;-80
2022/03/20 00:20:07;;;;;;;23.40;14.73;;;;;;;2.90;66.93;102986.28;5038838;28;20216;-80
2022/03/20 00:22:35;;;;;;;21.63;14.43;;;;;;;2.87;66.81;102983.63;5044034;28;20212;-80
2022/03/20 00:25:02;;;;;;;22.47;14.50;;;;;;;2.85;67.06;102980.13;5052768;28;20220;-80
2022/03/20 00:27:28;;;;;;;21.50;14.77;;;;;;;2.83;67.23;102980.13;5059785;28;20289;-80
2022/03/20 00:29:55;;;;;;;19.53;14.30;;;;;;;2.78;66.73;102974.81;5060047;28;20902;-81
2022/03/20 00:32:22;;;;;;;16.17;13.10;;;;;;;2.76;67.41;102966.03;5052384;28;20663;-81
2022/03/20 00:34:48;;;;;;;21.13;14.13;;;;;;;2.72;67.24;102961.63;5052716;28;20253;-80
2022/03/20 00:37:15;;;;;;;23.40;13.77;;;;;;;2.71;67.60;102965.13;5052048;28;20292;-80
2022/03/20 00:39:43;;;;;;;24.83;14.87;;;;;;;2.68;67.00;102956.34;5053227;28;20213;-80
2022/03/20 00:42:09;;;;;;;19.00;13.70;;;;;;;2.66;66.82;102952.84;5051094;28;20272;-80
2022/03/20 00:44:36;;;;;;;20.90;13.57;;;;;;;2.63;67.12;102948.44;5054217;28;20197;-80
2022/03/20 00:47:02;;;;;;;20.97;14.10;;;;;;;2.61;67.72;102944.03;5048495;28;20272;-80
2022/03/20 00:49:30;;;;;;;22.50;14.70;;;;;;;2.59;66.98;102951.91;5048797;28;20223;-80
2022/03/20 00:51:57;;;;;;;23.83;14.23;;;;;;;2.57;67.30;102936.97;5052200;28;20209;-80
2022/03/20 00:54:23;;;;;;;20.40;14.33;;;;;;;2.54;66.58;102943.09;5051395;28;20225;-80
2022/03/20 00:56:51;;;;;;;18.10;13.20;;;;;;;2.53;66.55;102929.94;5051181;28;20232;-80
2022/03/20 00:59:18;;;;;;;20.07;15.00;;;;;;;2.51;66.63;102936.97;5052051;28;20221;-80
2022/03/20 01:01:45;;;;;;;23.83;14.73;;;;;;;2.48;66.71;102922.03;5052157;28;20572;-80
2022/03/20 01:04:12;;;;;;;22.93;15.47;;;;;;;2.47;66.39;102933.44;5052963;28;20204;-80
2022/03/20 01:06:39;;;;;;;23.07;14.07;;;;;;;2.44;66.21;102926.38;5068005;28;20264;-80
2022/03/20 01:09:06;;;;;;;17.90;13.17;;;;;;;2.43;66.20;102921.13;5047928;28;20816;-80
2022/03/20 01:11:33;;;;;;;21.67;14.47;;;;;;;2.41;66.26;102926.38;5052171;28;20221;-80
2022/03/20 01:14:01;;;;;;;20.63;14.40;;;;;;;2.40;66.14;102921.09;5052183;28;20225;-80
2022/03/20 01:16:28;;;;;;;22.37;13.87;;;;;;;2.38;65.01;102915.81;5052671;28;20241;-80
2022/03/20 01:18:55;;;;;;;21.03;14.30;;;;;;;2.37;65.90;102919.31;5039913;28;20205;-80
2022/03/20 01:21:21;;;;;;;25.00;14.43;;;;;;;2.35;65.20;102920.16;5052556;28;20285;-80
2022/03/20 01:23:48;;;;;;;20.80;14.47;;;;;;;2.32;64.95;102921.06;5052183;28;20227;-80
2022/03/20 01:26:15;;;;;;;22.63;14.97;;;;;;;2.31;65.52;102915.78;5046966;28;20599;-80
2022/03/20 01:28:42;;;;;;;21.53;14.20;;;;;;;2.29;65.12;102914.91;5043723;28;20238;-80
2022/03/20 01:31:10;;;;;;;20.03;14.43;;;;;;;2.27;64.84;102909.63;5051992;28;20437;-80
2022/03/20 01:33:37;;;;;;;27.67;15.33;;;;;;;2.25;65.59;102907.84;5051578;28;20249;-80
2022/03/20 01:36:04;;;;;;;27.70;15.80;;;;;;;2.22;65.14;102905.19;5045499;28;20229;-81
2022/03/20 01:38:31;;;;;;;23.47;15.27;;;;;;;2.19;64.96;102892.00;5051527;28;20201;-80
2022/03/20 01:41:00;;;;;;;23.40;14.27;;;;;;;2.15;65.47;102893.75;5054523;28;20205;-80
2022/03/20 01:43:27;;;;;;;22.07;14.30;;;;;;;2.12;65.33;102892.88;5049955;28;20202;-80
2022/03/20 01:45:53;;;;;;;23.00;13.60;;;;;;;2.08;65.37;102873.56;5051223;28;20225;-80
2022/03/20 01:48:21;;;;;;;23.57;13.63;;;;;;;2.04;65.81;102871.75;5041855;28;20202;-80
2022/03/20 01:50:48;;;;;;;21.27;14.17;;;;;;;2.01;65.84;102863.84;5039353;28;20209;-80
2022/03/20 01:53:17;;;;;;;19.77;14.00;;;;;;;1.98;66.02;102869.09;5044828;28;20235;-80
2022/03/20 01:55:44;;;;;;;20.77;14.80;;;;;;;1.95;65.66;102867.34;5038852;28;20226;-80
2022/03/20 01:58:10;;;;;;;20.73;14.73;;;;;;;1.92;65.99;102861.19;5054265;28;20240;-80
2022/03/20 02:00:37;;;;;;;21.70;14.67;;;;;;;1.88;65.69;102859.38;5051257;28;20218;-80
2022/03/20 02:03:03;;;;;;;24.87;15.53;;;;;;;1.84;65.71;102857.59;5051154;28;20217;-80
2022/03/20 02:05:31;;;;;;;18.37;13.33;;;;;;;1.81;65.83;102854.94;5047642;28;20241;-80
2022/03/20 02:08:01;;;;;;;24.90;15.63;;;;;;;1.79;65.74;102868.09;5059749;28;20205;-80
2022/03/20 02:10:35;;;;;;;23.83;15.27;;;;;;;1.75;66.37;102863.66;5050323;28;20213;-81
2022/03/20 02:13:02;;;;;;;24.47;14.90;;;;;;;1.72;66.08;102851.38;5054668;28;20220;-80
2022/03/20 02:15:29;;;;;;;22.87;14.83;;;;;;;1.70;66.63;102860.13;5065731;28;20721;-80
2022/03/20 02:17:57;;;;;;;23.37;15.80;;;;;;;1.65;66.02;102851.31;5063841;28;20214;-80
2022/03/20 02:20:23;;;;;;;25.17;16.33;;;;;;;1.62;65.83;102841.66;5046618;28;20269;-80
2022/03/20 02:22:52;;;;;;;25.17;14.73;;;;;;;1.61;66.50;102850.41;5050641;28;20222;-80
2022/03/20 02:25:19;;;;;;;24.80;15.67;;;;;;;1.59;65.90;102846.03;5053740;28;20229;-80
2022/03/20 02:27:46;;;;;;;20.30;14.47;;;;;;;1.56;66.20;102844.25;5050231;28;20296;-80
2022/03/20 02:30:15;;;;;;;23.43;15.73;;;;;;;1.55;65.33;102844.22;5046549;28;20205;-81
2022/03/20 02:32:43;;;;;;;19.80;14.87;;;;;;;1.52;65.30;102836.31;5049722;28;20205;-80
2022/03/20 02:35:14;;;;;;;22.77;15.23;;;;;;;1.51;65.70;102834.56;5047176;28;20881;-80
2022/03/20 02:37:42;;;;;;;21.97;15.60;;;;;;;1.49;65.71;102837.16;5043334;28;20267;-80
2022/03/20 02:40:11;;;;;;;23.03;15.07;;;;;;;1.48;65.89;102838.03;5046652;28;20212;-80
2022/03/20 02:42:40;;;;;;;21.73;13.97;;;;;;;1.47;65.77;102838.91;5040921;28;20278;-80
2022/03/20 02:45:09;;;;;;;21.77;15.27;;;;;;;1.48;64.96;102842.41;5045294;28;20194;-80
2022/03/20 02:47:38;;;;;;;22.50;15.93;;;;;;;1.46;64.80;102842.38;5052698;28;20201;-80
2022/03/20 02:52:47;;;;;;;20.87;15.37;;;;;;;1.42;64.43;102827.50;5047845;28;20229;-66
2022/03/20 02:55:17;;;;;;;24.90;15.63;;;;;;;1.41;64.77;102825.72;5030307;28;20236;-67
2022/03/20 02:57:44;;;;;;;22.63;14.43;;;;;;;1.40;63.97;102829.22;5025534;28;20585;-67
2022/03/20 03:00:12;;;;;;;23.70;15.90;;;;;;;1.38;64.04;102825.69;5028366;28;20221;-67
2022/03/20 03:02:44;;;;;;;20.93;14.73;;;;;;;1.36;63.72;102825.69;5024754;28;20314;-67
2022/03/20 03:05:11;;;;;;;23.83;14.90;;;;;;;1.34;63.88;102824.78;5048426;22;20253;-70
2022/03/20 03:13:06;;;;;;;23.60;14.67;;;;;;;1.27;63.10;102827.31;5030348;28;20237;-70
2022/03/20 03:15:33;;;;;;;25.27;15.37;;;;;;;1.25;63.66;102819.47;5011442;28;20235;-70
2022/03/20 03:18:00;;;;;;;23.97;15.73;;;;;;;1.23;63.34;102815.94;5007991;28;20298;-70
2022/03/20 03:20:27;;;;;;;24.50;15.77;;;;;;;1.21;63.19;102814.16;5010121;28;20199;-70
2022/03/20 03:22:53;;;;;;;25.77;16.30;;;;;;;1.15;63.22;102817.59;5009925;28;20227;-71
2022/03/20 03:25:23;;;;;;;22.73;14.27;;;;;;;1.12;63.50;102814.06;5009765;28;20254;-70
2022/03/20 03:27:49;;;;;;;26.60;16.30;;;;;;;1.06;63.52;102811.38;5002470;28;20298;-71
2022/03/20 03:30:16;;;;;;;28.97;17.23;;;;;;;1.00;63.67;102801.69;5009445;28;20294;-72
2022/03/20 03:32:43;;;;;;;23.10;15.23;;;;;;;0.96;63.27;102810.41;4999258;28;20278;-70
2022/03/20 03:37:54;;;;;;;24.10;15.30;;;;;;;0.87;63.46;102802.44;5002026;28;20225;-71
2022/03/20 03:40:22;;;;;;;21.97;15.47;;;;;;;0.82;63.68;102791.91;5009639;28;20302;-70
2022/03/20 03:42:49;;;;;;;26.60;17.10;;;;;;;0.79;63.79;102801.47;5009693;28;20215;-70
2022/03/20 03:45:16;;;;;;;29.40;17.30;;;;;;;0.75;64.43;102795.28;5014580;28;20880;-70
2022/03/20 03:47:43;;;;;;;26.00;15.97;;;;;;;0.73;64.35;102793.50;5009256;28;20297;-72
2022/03/20 03:50:11;;;;;;;19.27;14.40;;;;;;;0.68;64.52;102794.38;5006906;28;20696;-70
2022/03/20 03:52:38;;;;;;;24.17;15.90;;;;;;;0.67;64.40;102789.09;5008980;28;20211;-70
2022/03/20 03:55:07;;;;;;;24.47;14.80;;;;;;;0.64;64.66;102786.44;5007741;28;20253;-72
2022/03/20 03:57:35;;;;;;;20.50;12.90;;;;;;;0.62;64.59;102785.53;5004505;28;20294;-70
2022/03/20 04:00:01;;;;;;;23.00;15.60;;;;;;;0.61;64.54;102773.28;5009041;28;20277;-71
2022/03/20 04:02:29;;;;;;;23.33;15.27;;;;;;;0.59;64.62;102785.50;5009641;28;20660;-70
2022/03/20 04:04:55;;;;;;;30.07;16.50;;;;;;;0.57;64.58;102780.22;5008581;28;20622;-69
2022/03/20 04:07:22;;;;;;;23.87;15.80;;;;;;;0.56;64.59;102774.97;5009140;28;20241;-72
2022/03/20 04:09:49;;;;;;;24.40;15.93;;;;;;;0.56;64.65;102782.84;5007468;28;20711;-69
2022/03/20 04:12:16;;;;;;;22.93;15.33;;;;;;;0.55;64.55;102771.47;5005133;28;20487;-70
2022/03/20 04:14:45;;;;;;;22.53;15.07;;;;;;;0.53;64.53;102765.34;5009139;28;20329;-70
2022/03/20 04:17:12;;;;;;;21.03;14.13;;;;;;;0.53;64.70;102767.97;5007946;28;20734;-70
2022/03/20 04:19:38;;;;;;;23.13;14.57;;;;;;;0.52;64.46;102766.22;5009096;28;20298;-69
2022/03/20 04:22:05;;;;;;;20.33;14.03;;;;;;;0.52;64.36;102762.72;5010115;28;20218;-70
2022/03/20 04:24:32;;;;;;;25.23;15.13;;;;;;;0.50;64.00;102767.06;5010199;28;20250;-70
2022/03/20 04:26:59;;;;;;;22.10;14.67;;;;;;;0.50;64.22;102767.06;5007911;28;20225;-69
2022/03/20 04:29:27;;;;;;;24.80;15.10;;;;;;;0.48;63.76;102763.53;5009036;28;20211;-69
2022/03/20 04:31:56;;;;;;;24.47;14.83;;;;;;;0.49;64.07;102763.56;5008793;28;20375;-72
2022/03/20 04:34:23;;;;;;;25.27;15.57;;;;;;;0.48;63.62;102761.78;5008459;28;20313;-70
2022/03/20 04:36:50;;;;;;;22.30;14.97;;;;;;;0.47;63.93;102752.16;5007298;28;20222;-70
2022/03/20 04:39:17;;;;;;;26.00;15.90;;;;;;;0.46;63.47;102749.53;5007990;28;20202;-70
2022/03/20 04:41:46;;;;;;;20.87;14.60;;;;;;;0.43;63.47;102747.75;5008974;28;20522;-69
2022/03/20 04:44:13;;;;;;;22.67;15.20;;;;;;;0.42;63.47;102742.47;5002101;28;20230;-71
2022/03/20 04:46:40;;;;;;;21.23;14.90;;;;;;;0.41;63.58;102738.09;5012353;28;20286;-70
2022/03/20 05:00:05;;;;;;;26.80;15.60;;;;;;;0.34;62.90;102755.50;5008619;28;20206;-70
2022/03/20 05:02:31;;;;;;;25.33;15.03;;;;;;;0.33;63.26;102753.75;5007533;28;20210;-71
2022/03/20 05:04:59;;;;;;;24.40;14.43;;;;;;;0.32;63.01;102749.38;5008002;28;20325;-72
2022/03/20 05:07:26;;;;;;;25.60;15.60;;;;;;;0.32;62.78;102757.22;5007364;28;20243;-70
2022/03/20 05:15:20;;;;;;;21.93;14.90;;;;;;;0.30;62.75;102748.47;5007454;28;20241;-70
2022/03/20 05:17:47;;;;;;;21.67;14.10;;;;;;;0.29;63.06;102754.56;5007120;28;20286;-71
2022/03/20 05:20:16;;;;;;;21.83;14.40;;;;;;;0.29;62.69;102755.44;5008188;28;20294;-70
2022/03/20 05:22:42;;;;;;;22.37;14.30;;;;;;;0.28;62.43;102739.69;5018420;28;20211;-70
2022/03/20 05:25:10;;;;;;;26.33;14.40;;;;;;;0.27;62.50;102733.56;5008048;28;20822;-68
2022/03/20 05:27:37;;;;;;;25.80;14.40;;;;;;;0.24;62.53;102733.53;5007923;28;20294;-70
2022/03/20 05:30:07;;;;;;;27.70;15.20;;;;;;;0.22;62.60;102729.13;5007085;28;20230;-71
2022/03/20 05:32:35;;;;;;;25.27;14.13;;;;;;;0.20;62.41;102725.59;5012593;28;20466;-68
2022/03/20 05:35:03;;;;;;;23.20;14.27;;;;;;;0.17;62.64;102721.22;5010504;28;21356;-70
2022/03/20 05:37:31;;;;;;;23.73;14.73;;;;;;;0.15;62.26;102722.06;5007674;28;20725;-72
2022/03/20 05:39:58;;;;;;;23.13;15.97;;;;;;;0.13;62.60;102715.94;5014959;28;20306;-71
2022/03/20 05:42:25;;;;;;;25.17;15.00;;;;;;;0.11;62.78;102704.53;5020985;28;20372;-69
2022/03/20 05:44:52;;;;;;;23.63;14.50;;;;;;;0.13;62.48;102710.69;5013361;28;20757;-70
2022/03/20 05:47:18;;;;;;;23.50;14.43;;;;;;;0.13;62.86;102713.31;5012055;28;20286;-69
2022/03/20 05:49:46;;;;;;;23.50;14.63;;;;;;;0.15;62.52;102708.97;5011674;28;20309;-71
2022/03/20 05:52:13;;;;;;;24.00;14.77;;;;;;;0.19;62.65;102714.25;5010745;28;20637;-69
2022/03/20 05:54:41;;;;;;;23.43;14.87;;;;;;;0.24;62.44;102706.44;5012045;28;20244;-70
2022/03/20 05:59:54;;;;;;;26.93;15.53;;;;;;;0.36;61.84;102710.97;5027508;28;20217;-71
2022/03/20 06:02:20;;;;;;;26.57;14.90;;;;;;;0.40;61.67;102705.75;5024291;28;20214;-72
2022/03/20 06:04:47;;;;;;;20.90;13.97;;;;;;;0.46;61.26;102707.56;5008805;28;20273;-70
2022/03/20 06:07:14;;;;;;;21.57;14.27;;;;;;;0.50;60.85;102715.50;5012672;28;20281;-72
2022/03/20 06:09:42;;;;;;;23.10;14.67;;;;;;;0.53;60.63;102715.53;5007019;28;20286;-71
2022/03/20 06:12:10;;;;;;;21.63;14.10;;;;;;;0.58;60.24;102721.69;5009390;28;20323;-71
2022/03/20 06:14:36;;;;;;;28.27;15.13;;;;;;;0.63;59.76;102696.41;5005836;28;20717;-72
2022/03/20 06:17:05;;;;;;;28.83;14.27;;;;;;;0.68;59.42;102702.59;5007472;28;20305;-72
2022/03/20 06:19:31;;;;;;;24.43;13.23;;;;;;;0.72;59.14;102705.25;5009030;28;20218;-72
2022/03/20 06:21:59;;;;;;;21.80;14.77;;;;;;;0.76;58.92;102705.25;5002918;28;20712;-71
2022/03/20 06:24:25;;;;;;;26.80;15.57;;;;;;;0.79;58.95;102709.66;5006477;28;20235;-72
2022/03/20 06:26:53;;;;;;;20.97;12.33;;;;;;;0.82;58.51;102713.22;5009319;28;20210;-71
2022/03/20 06:29:20;;;;;;;25.00;13.63;;;;;;;0.86;57.78;102712.38;5018976;28;20213;-73
2022/03/20 06:31:49;;;;;;;20.77;13.53;;;;;;;0.88;57.50;102710.66;5015940;28;20690;-71
2022/03/20 06:34:15;;;;;;;22.07;13.13;;;;;;;0.91;57.38;102718.53;5006191;28;20223;-70
2022/03/20 06:36:42;;;;;;;21.00;12.07;;;;;;;0.96;57.03;102713.31;5009812;28;20238;-71
2022/03/20 06:39:09;;;;;;;24.13;14.57;;;;;;;0.98;57.42;102715.09;5010050;28;20214;-71
2022/03/20 06:41:38;;;;;;;18.27;11.40;;;;;;;1.03;56.78;102707.28;5011115;28;20749;-71
2022/03/20 06:44:06;;;;;;;19.20;13.20;;;;;;;1.06;56.81;102709.06;5012720;28;20321;-70
2022/03/20 06:46:37;;;;;;;22.87;13.90;;;;;;;1.10;57.04;102703.81;5010169;28;20222;-70
2022/03/20 06:49:04;;;;;;;23.17;13.87;;;;;;;1.14;56.46;102696.84;5008225;28;20768;-72
2022/03/20 06:51:31;;;;;;;16.80;11.30;;;;;;;1.15;56.80;102704.75;5005051;28;20237;-70
2022/03/20 06:53:59;;;;;;;25.27;14.87;;;;;;;1.19;56.49;102701.28;5002610;28;20314;-70
2022/03/20 06:56:27;;;;;;;24.10;12.53;;;;;;;1.25;56.14;102700.47;5001603;28;20318;-73
2022/03/20 06:58:54;;;;;;;22.63;13.20;;;;;;;1.28;55.64;102693.47;5001185;28;20299;-71
2022/03/20 07:01:22;;;;;;;21.73;13.90;;;;;;;1.33;55.74;102704.91;5002831;28;20212;-70
2022/03/20 07:03:49;;;;;;;26.37;13.23;;;;;;;1.36;55.38;102706.66;5002593;28;20310;-69
2022/03/20 07:06:15;;;;;;;21.53;13.20;;;;;;;1.40;55.81;102695.31;5003799;28;20211;-72
2022/03/20 07:08:42;;;;;;;18.37;12.53;;;;;;;1.47;55.42;102710.22;5001169;28;20301;-71
2022/03/20 07:11:09;;;;;;;26.30;14.30;;;;;;;1.50;55.37;102706.75;5003499;28;20206;-70
2022/03/20 07:13:53;;;;;;;22.37;11.27;;;;;;;1.54;55.09;102712.03;5002722;28;20736;-70
2022/03/20 07:16:23;;;;;;;23.57;13.63;;;;;;;1.62;55.15;102715.59;5001165;28;20227;-71
2022/03/20 07:18:51;;;;;;;22.37;14.63;;;;;;;1.69;55.23;102713.88;5002840;28;20282;-71
2022/03/20 07:21:19;;;;;;;21.07;12.93;;;;;;;1.75;55.03;102706.06;5009135;28;20751;-71
2022/03/20 07:23:46;;;;;;;24.27;14.47;;;;;;;1.80;54.91;102708.69;5001581;28;20234;-73
2022/03/20 07:31:41;;;;;;;22.67;13.90;;;;;;;1.95;54.20;102696.53;5000967;28;20218;-71
2022/03/20 07:34:10;;;;;;;21.00;14.67;;;;;;;2.01;54.06;102691.28;5007130;28;20635;-71
2022/03/20 07:36:36;;;;;;;20.47;12.50;;;;;;;2.09;54.08;102696.59;4997760;28;20235;-71
2022/03/20 07:39:04;;;;;;;18.30;12.27;;;;;;;2.17;53.98;102691.34;4989996;28;20207;-71
2022/03/20 07:41:31;;;;;;;26.73;15.30;;;;;;;2.23;53.67;102694.88;4993216;28;20214;-71
2022/03/20 07:43:58;;;;;;;20.20;12.07;;;;;;;2.33;54.09;102690.56;4996382;28;20231;-71
2022/03/20 07:46:25;;;;;;;21.40;13.17;;;;;;;2.43;54.18;102666.03;4994499;28;20217;-72
2022/03/20 07:48:51;;;;;;;27.57;15.37;;;;;;;2.52;53.26;102680.94;4993246;28;20214;-70
2022/03/20 07:51:20;;;;;;;26.40;14.77;;;;;;;2.63;53.17;102682.72;4996562;28;20206;-71
2022/03/20 07:53:47;;;;;;;25.00;14.97;;;;;;;2.71;52.69;102665.19;4992799;28;20231;-69
2022/03/20 07:56:18;;;;;;;25.13;14.20;;;;;;;2.83;53.18;102674.88;4997398;28;20277;-70
2022/03/20 07:58:44;;;;;;;24.30;15.27;;;;;;;2.95;53.37;102660.81;5000753;28;20210;-70
2022/03/20 08:01:11;;;;;;;26.93;16.00;;;;;;;3.07;52.31;102660.81;4993460;28;20203;-70
2022/03/20 08:03:38;;;;;;;25.83;15.27;;;;;;;3.17;52.37;102653.81;4999143;28;20226;-70
2022/03/20 08:06:06;;;;;;;27.10;16.63;;;;;;;3.26;51.73;102657.28;4996469;28;20202;-69
2022/03/20 08:08:35;;;;;;;23.37;14.37;;;;;;;3.37;52.28;102644.13;4998511;28;20198;-70
2022/03/20 08:11:01;;;;;;;25.17;16.03;;;;;;;3.48;52.10;102653.75;5000817;28;20216;-69
2022/03/20 08:13:31;;;;;;;25.77;14.57;;;;;;;3.58;51.79;102644.06;5000813;28;20195;-70
2022/03/20 08:15:57;;;;;;;23.50;15.73;;;;;;;3.70;52.00;102645.78;4992776;28;20238;-69
2022/03/20 08:18:24;;;;;;;23.10;15.00;;;;;;;3.80;50.94;102642.22;4995221;28;20199;-69
2022/03/20 08:20:50;;;;;;;28.63;15.00;;;;;;;3.91;50.95;102640.44;4999371;28;20211;-70
2022/03/20 08:23:17;;;;;;;21.43;12.70;;;;;;;3.95;50.63;102636.88;4991423;28;20245;-70
2022/03/20 08:25:45;;;;;;;28.83;16.33;;;;;;;4.03;50.16;102621.94;4996468;28;20227;-70
2022/03/20 08:28:12;;;;;;;22.00;13.90;;;;;;;4.10;50.24;102628.06;5000451;28;20222;-69
2022/03/20 08:30:40;;;;;;;22.73;14.00;;;;;;;4.21;50.28;102626.22;5000660;28;20600;-69
2022/03/20 08:33:06;;;;;;;21.13;13.87;;;;;;;4.33;49.99;102614.72;4995853;28;20203;-68
2022/03/20 08:35:33;;;;;;;27.20;14.20;;;;;;;4.46;50.26;102598.81;4994748;28;20227;-71
2022/03/20 08:38:00;;;;;;;23.80;15.30;;;;;;;4.59;49.59;102599.59;4996792;28;20592;-69
2022/03/20 08:40:27;;;;;;;23.60;15.40;;;;;;;4.69;49.71;102598.63;4991105;28;20229;-69
2022/03/20 08:42:56;;;;;;;25.97;16.80;;;;;;;4.80;49.95;102583.59;4993401;28;20211;-70
2022/03/20 08:45:24;;;;;;;14.37;11.23;;;;;;;4.89;48.86;102591.41;4996411;28;20234;-71
2022/03/20 08:47:51;;;;;;;22.90;16.07;;;;;;;5.00;48.95;102593.97;4990905;28;20701;-70
2022/03/20 08:50:19;;;;;;;24.50;15.00;;;;;;;5.14;48.80;102580.63;4998261;28;20212;-69
2022/03/20 08:52:47;;;;;;;25.10;14.27;;;;;;;5.20;48.33;102583.19;4998247;28;20848;-70
2022/03/20 08:55:14;;;;;;;24.80;16.57;;;;;;;5.29;48.76;102585.75;5007494;28;20908;-70
2022/03/20 08:57:42;;;;;;;19.47;13.20;;;;;;;5.38;48.38;102584.75;4994887;28;20214;-70
2022/03/20 09:00:13;;;;;;;26.63;16.43;;;;;;;5.45;48.11;102579.41;4998965;28;20203;-72
2022/03/20 09:02:43;;;;;;;24.07;15.37;;;;;;;5.57;48.35;102573.09;4994232;28;20704;-70
2022/03/20 09:05:11;;;;;;;24.27;15.07;;;;;;;5.65;47.85;102580.94;5025189;22;20255;-85
2022/03/20 09:07:38;;;;;;;23.33;13.47;;;;;;;5.75;47.92;102566.69;5033161;28;20220;-84
2022/03/20 09:10:05;;;;;;;27.93;17.20;;;;;;;5.85;47.73;102571.88;5028625;28;20198;-84
2022/03/20 09:12:32;;;;;;;21.50;13.87;;;;;;;5.97;47.08;102565.56;5003998;28;20588;-84
2022/03/20 09:14:58;;;;;;;19.83;13.00;;;;;;;6.07;47.03;102553.97;5005431;28;20207;-84
2022/03/20 09:20:10;;;;;;;25.50;15.03;;;;;;;6.26;46.74;102557.22;5010376;28;20746;-85
2022/03/20 09:22:37;;;;;;;23.03;15.70;;;;;;;6.33;46.30;102553.56;5016360;28;20214;-84
2022/03/20 09:25:04;;;;;;;21.37;14.90;;;;;;;6.40;46.01;102549.94;5004250;28;20278;-83
2022/03/20 09:27:31;;;;;;;17.80;12.57;;;;;;;6.50;46.10;102540.94;5006048;28;20212;-82
2022/03/20 09:29:57;;;;;;;21.37;14.63;;;;;;;6.60;46.95;102534.59;5009734;28;20718;-84
2022/03/20 09:32:24;;;;;;;24.83;15.50;;;;;;;6.68;45.45;102545.06;4998836;28;20773;-83
2022/03/20 09:34:52;;;;;;;20.67;16.23;;;;;;;6.77;45.89;102538.72;5005556;28;20219;-83
2022/03/20 09:37:18;;;;;;;22.87;16.47;;;;;;;6.85;45.48;102550.91;5002168;28;20227;-82
2022/03/20 09:39:45;;;;;;;20.87;14.87;;;;;;;6.93;45.38;102551.69;5011004;28;20215;-83
2022/03/20 09:42:12;;;;;;;19.97;13.70;;;;;;;7.04;45.29;102551.47;5010799;28;20231;-83
2022/03/20 09:44:40;;;;;;;20.17;14.90;;;;;;;7.18;45.29;102545.91;4999575;28;20203;-83
2022/03/20 09:47:11;;;;;;;26.70;16.67;;;;;;;7.28;45.06;102547.50;5000734;28;20696;-82
2022/03/20 09:49:38;;;;;;;20.60;14.27;;;;;;;7.39;44.90;102553.44;4997902;28;20282;-83
2022/03/20 09:52:07;;;;;;;18.63;13.80;;;;;;;7.51;44.36;102531.13;5003623;28;20238;-83
2022/03/20 09:54:35;;;;;;;23.40;14.17;;;;;;;7.60;44.21;102546.84;5000668;28;20286;-84
2022/03/20 09:57:04;;;;;;;18.73;13.83;;;;;;;7.64;42.66;102533.50;5003610;28;20234;-83
2022/03/20 09:59:31;;;;;;;19.33;14.63;;;;;;;7.68;43.21;102546.69;4997442;28;21055;-84
2022/03/20 10:02:03;;;;;;;20.90;15.13;;;;;;;7.72;42.80;102538.59;5005830;28;20233;-83
2022/03/20 10:04:31;;;;;;;18.87;13.57;;;;;;;7.80;42.86;102535.81;5001835;28;20208;-82
2022/03/20 10:06:59;;;;;;;20.77;14.07;;;;;;;7.88;42.72;102542.66;5009167;28;20221;-84
2022/03/20 10:09:36;;;;;;;20.50;14.60;;;;;;;7.96;42.24;102526.59;5014269;28;20290;-84
2022/03/20 10:12:03;;;;;;;18.33;12.23;;;;;;;8.04;41.33;102518.47;5004221;28;20266;-83
2022/03/20 10:14:30;;;;;;;19.90;14.77;;;;;;;8.09;41.67;102514.78;5011421;28;20230;-83
2022/03/20 10:17:11;;;;;;;19.97;12.60;;;;;;;8.20;41.15;102504.81;5004480;28;20760;-82
2022/03/20 10:19:38;;;;;;;24.77;13.73;;;;;;;8.29;42.09;102498.38;5000927;28;20294;-83
2022/03/20 10:22:07;;;;;;;21.57;12.80;;;;;;;8.38;41.42;102492.03;5008956;28;20238;-82
2022/03/20 10:24:37;;;;;;;20.53;13.77;;;;;;;8.45;40.39;102490.94;5001553;28;20222;-82
2022/03/20 10:27:06;;;;;;;21.53;14.97;;;;;;;8.49;40.80;102477.56;5011628;28;20210;-82
2022/03/20 10:29:35;;;;;;;18.93;13.73;;;;;;;8.60;40.82;102471.97;5009968;28;20245;-84
2022/03/20 10:32:08;;;;;;;17.00;12.67;;;;;;;8.62;39.69;102471.00;5017153;28;20230;-84
2022/03/20 10:34:47;;;;;;;20.40;13.47;;;;;;;8.69;40.23;102466.41;5009113;28;20215;-83
2022/03/20 10:37:14;;;;;;;16.43;10.77;;;;;;;8.71;39.38;102469.91;5007742;28;20680;-84
2022/03/20 10:39:42;;;;;;;14.90;11.80;;;;;;;8.77;39.49;102460.91;5006480;28;20317;-84
2022/03/20 10:42:11;;;;;;;17.50;13.17;;;;;;;8.86;39.45;102455.34;5011269;28;20234;-83
2022/03/20 10:44:38;;;;;;;16.90;10.43;;;;;;;8.95;40.27;102457.75;5007326;28;20302;-85
2022/03/20 10:47:12;;;;;;;17.20;12.27;;;;;;;9.01;39.74;102446.94;5009657;28;20203;-83
2022/03/20 10:49:46;;;;;;;20.40;14.00;;;;;;;9.07;39.30;102456.53;5008770;28;20425;-83
2022/03/20 10:52:18;;;;;;;18.30;11.70;;;;;;;9.19;38.78;102442.88;5002358;28;20564;-83
2022/03/20 10:54:47;;;;;;;19.77;13.70;;;;;;;9.26;38.52;102437.34;5008303;28;20225;-83
2022/03/20 10:57:15;;;;;;;16.77;12.63;;;;;;;9.35;39.18;102441.50;5006899;28;20242;-83
2022/03/20 10:59:43;;;;;;;14.77;12.27;;;;;;;9.49;39.00;102428.69;4999100;28;20293;-83
2022/03/20 11:02:21;;;;;;;23.37;13.10;;;;;;;9.56;38.47;102421.38;5002236;28;20244;-85
2022/03/20 11:04:48;;;;;;;14.87;11.83;;;;;;;9.66;38.13;102428.16;5000000;28;20233;-84
2022/03/20 11:07:17;;;;;;;16.13;13.20;;;;;;;9.70;38.18;102440.44;5001716;28;20211;-84
2022/03/20 11:09:46;;;;;;;11.67;9.30;;;;;;;9.81;37.65;102430.34;4999562;28;20215;-84
2022/03/20 11:12:18;;;;;;;20.10;13.03;;;;;;;9.86;37.26;102425.72;4998165;28;20231;-84
2022/03/20 11:14:45;;;;;;;15.17;11.83;;;;;;;9.94;36.67;102431.69;5006166;28;20219;-84
2022/03/20 11:17:17;;;;;;;18.73;12.70;;;;;;;10.01;36.83;102419.94;4998668;28;20728;-83
2022/03/20 11:19:50;;;;;;;16.13;11.87;;;;;;;10.14;37.41;102417.72;4996008;28;20214;-83
2022/03/20 11:22:20;;;;;;;15.97;11.17;;;;;;;10.27;37.22;102434.19;4999744;28;20230;-84
2022/03/20 11:24:51;;;;;;;14.50;9.30;;;;;;;10.31;36.33;102403.88;4992383;28;20212;-84
2022/03/20 11:27:23;;;;;;;17.03;12.80;;;;;;;10.30;36.02;102408.31;4998562;28;20214;-84
2022/03/20 11:29:52;;;;;;;16.43;12.03;;;;;;;10.31;35.98;102402.06;5006872;28;20203;-84
2022/03/20 11:32:20;;;;;;;16.27;11.37;;;;;;;10.36;36.36;102413.44;5004047;28;20220;-84
2022/03/20 11:34:49;;;;;;;15.87;12.53;;;;;;;10.38;35.93;102406.28;5003184;28;20241;-83
2022/03/20 11:37:17;;;;;;;13.03;9.87;;;;;;;10.48;36.22;102416.59;5004398;28;20639;-84
2022/03/20 11:40:09;;;;;;;16.30;11.73;;;;;;;10.55;35.77;102397.69;5005028;28;20219;-81
2022/03/20 11:42:36;;;;;;;16.50;12.43;;;;;;;10.62;35.20;102385.88;5003425;28;20214;-82
2022/03/20 11:45:12;;;;;;;15.47;11.53;;;;;;;10.66;35.16;102400.84;5005524;28;20211;-82
2022/03/20 11:47:40;;;;;;;16.10;10.63;;;;;;;10.69;35.06;102405.19;5001418;28;20213;-83
2022/03/20 11:50:08;;;;;;;15.07;10.70;;;;;;;10.68;34.89;102387.44;5007821;28;20847;-84
2022/03/20 11:52:46;;;;;;;18.73;12.80;;;;;;;10.75;35.49;102388.94;5005026;28;20628;-83
2022/03/20 11:55:35;;;;;;;15.60;12.37;;;;;;;10.84;35.43;102398.41;5003917;28;20230;-82
2022/03/20 11:58:05;;;;;;;17.80;12.17;;;;;;;10.90;35.37;102385.75;5002434;28;20481;-81